sensor_id;sensor_type;location;lat;lon;timestamp;P1;durP1;ratioP1;P2;durP2;ratioP2
15573;SDS011;7888;46.748;8.102;2023-02-21T00:01:57;1.00;;;0.60;;
15573;SDS011;7888;46.748;8.102;2023-02-21T00:04:41;0.37;;;0.30;;
15573;SDS011;7888;46.748;8.102;2023-02-21T00:07:26;1.90;;;0.60;;
15573;SDS011;7888;46.748;8.102;2023-02-21T00:10:12;0.67;;;0.50;;
15573;SDS011;7888;46.748;8.102;2023-02-21T00:12:58;1.60;;;0.40;;
15573;SDS011;7888;46.748;8.102;2023-02-21T00:15:42;1.33;;;0.47;;
15573;SDS011;7888;46.748;8.102;2023-02-21T00:18:27;0.60;;;0.50;;
15573;SDS011;7888;46.748;8.102;2023-02-21T00:21:15;0.53;;;0.37;;
15573;SDS011;7888;46.748;8.102;2023-02-21T00:24:00;0.97;;;0.40;;
15573;SDS011;7888;46.748;8.102;2023-02-21T00:26:44;0.63;;;0.40;;
15573;SDS011;7888;46.748;8.102;2023-02-21T00:29:28;0.97;;;0.27;;
15573;SDS011;7888;46.748;8.102;2023-02-21T00:32:12;0.40;;;0.40;;
15573;SDS011;7888;46.748;8.102;2023-02-21T00:34:56;0.20;;;0.20;;
15573;SDS011;7888;46.748;8.102;2023-02-21T00:37:40;0.30;;;0.27;;
15573;SDS011;7888;46.748;8.102;2023-02-21T00:40:24;0.97;;;0.40;;
15573;SDS011;7888;46.748;8.102;2023-02-21T00:43:08;0.40;;;0.40;;
15573;SDS011;7888;46.748;8.102;2023-02-21T00:45:52;0.93;;;0.30;;
15573;SDS011;7888;46.748;8.102;2023-02-21T00:48:36;0.73;;;0.30;;
15573;SDS011;7888;46.748;8.102;2023-02-21T00:51:20;0.43;;;0.43;;
15573;SDS011;7888;46.748;8.102;2023-02-21T00:54:04;0.57;;;0.37;;
15573;SDS011;7888;46.748;8.102;2023-02-21T00:56:48;0.87;;;0.50;;
15573;SDS011;7888;46.748;8.102;2023-02-21T00:59:32;0.50;;;0.50;;
15573;SDS011;7888;46.748;8.102;2023-02-21T01:02:17;0.47;;;0.30;;
15573;SDS011;7888;46.748;8.102;2023-02-21T01:05:01;0.97;;;0.70;;
15573;SDS011;7888;46.748;8.102;2023-02-21T01:07:46;1.23;;;0.60;;
15573;SDS011;7888;46.748;8.102;2023-02-21T01:10:30;0.50;;;0.50;;
15573;SDS011;7888;46.748;8.102;2023-02-21T01:13:14;0.80;;;0.50;;
15573;SDS011;7888;46.748;8.102;2023-02-21T01:15:58;1.07;;;0.50;;
15573;SDS011;7888;46.748;8.102;2023-02-21T01:18:43;1.63;;;0.50;;
15573;SDS011;7888;46.748;8.102;2023-02-21T01:21:27;1.03;;;0.60;;
15573;SDS011;7888;46.748;8.102;2023-02-21T01:24:13;2.10;;;0.77;;
15573;SDS011;7888;46.748;8.102;2023-02-21T01:26:58;1.33;;;0.50;;
15573;SDS011;7888;46.748;8.102;2023-02-21T01:29:43;1.10;;;0.60;;
15573;SDS011;7888;46.748;8.102;2023-02-21T01:32:28;0.67;;;0.60;;
15573;SDS011;7888;46.748;8.102;2023-02-21T01:35:13;1.70;;;0.60;;
15573;SDS011;7888;46.748;8.102;2023-02-21T01:37:57;0.60;;;0.50;;
15573;SDS011;7888;46.748;8.102;2023-02-21T01:40:41;0.93;;;0.50;;
15573;SDS011;7888;46.748;8.102;2023-02-21T01:43:26;0.60;;;0.40;;
15573;SDS011;7888;46.748;8.102;2023-02-21T01:46:12;0.53;;;0.40;;
15573;SDS011;7888;46.748;8.102;2023-02-21T01:49:01;1.60;;;0.40;;
15573;SDS011;7888;46.748;8.102;2023-02-21T01:52:00;0.93;;;0.57;;
15573;SDS011;7888;46.748;8.102;2023-02-21T01:54:48;0.40;;;0.40;;
15573;SDS011;7888;46.748;8.102;2023-02-21T01:57:36;0.40;;;0.37;;
15573;SDS011;7888;46.748;8.102;2023-02-21T02:00:23;0.83;;;0.50;;
15573;SDS011;7888;46.748;8.102;2023-02-21T02:03:10;0.50;;;0.50;;
15573;SDS011;7888;46.748;8.102;2023-02-21T02:05:58;0.97;;;0.60;;
15573;SDS011;7888;46.748;8.102;2023-02-21T02:08:47;0.70;;;0.60;;
15573;SDS011;7888;46.748;8.102;2023-02-21T02:18:03;0.50;;;0.43;;
15573;SDS011;7888;46.748;8.102;2023-02-21T02:23:34;0.93;;;0.60;;
15573;SDS011;7888;46.748;8.102;2023-02-21T02:26:55;2.60;;;1.00;;
15573;SDS011;7888;46.748;8.102;2023-02-21T02:33:07;0.70;;;0.70;;
15573;SDS011;7888;46.748;8.102;2023-02-21T02:36:16;1.50;;;0.90;;
15573;SDS011;7888;46.748;8.102;2023-02-21T02:44:59;1.20;;;0.73;;
15573;SDS011;7888;46.748;8.102;2023-02-21T02:47:51;0.90;;;0.90;;
15573;SDS011;7888;46.748;8.102;2023-02-21T02:50:28;1.20;;;1.10;;
15573;SDS011;7888;46.748;8.102;2023-02-21T02:52:59;1.30;;;0.80;;
15573;SDS011;7888;46.748;8.102;2023-02-21T02:55:33;3.13;;;0.90;;
15573;SDS011;7888;46.748;8.102;2023-02-21T02:58:11;1.57;;;0.80;;
15573;SDS011;7888;46.748;8.102;2023-02-21T03:00:39;1.07;;;1.00;;
15573;SDS011;7888;46.748;8.102;2023-02-21T03:06:24;1.83;;;0.80;;
15573;SDS011;7888;46.748;8.102;2023-02-21T03:09:28;1.13;;;1.00;;
15573;SDS011;7888;46.748;8.102;2023-02-21T03:14:50;1.10;;;0.80;;
15573;SDS011;7888;46.748;8.102;2023-02-21T03:17:31;0.60;;;0.60;;
15573;SDS011;7888;46.748;8.102;2023-02-21T03:20:04;1.63;;;0.83;;
15573;SDS011;7888;46.748;8.102;2023-02-21T03:22:34;1.20;;;0.80;;
15573;SDS011;7888;46.748;8.102;2023-02-21T03:25:01;0.80;;;0.77;;
15573;SDS011;7888;46.748;8.102;2023-02-21T03:27:29;0.80;;;0.73;;
15573;SDS011;7888;46.748;8.102;2023-02-21T03:29:57;0.90;;;0.73;;
15573;SDS011;7888;46.748;8.102;2023-02-21T03:32:33;1.00;;;0.80;;
15573;SDS011;7888;46.748;8.102;2023-02-21T03:35:04;2.40;;;1.30;;
15573;SDS011;7888;46.748;8.102;2023-02-21T03:37:32;1.60;;;1.23;;
15573;SDS011;7888;46.748;8.102;2023-02-21T03:40:28;1.60;;;0.90;;
15573;SDS011;7888;46.748;8.102;2023-02-21T03:42:58;2.27;;;0.87;;
15573;SDS011;7888;46.748;8.102;2023-02-21T03:45:26;1.40;;;0.70;;
15573;SDS011;7888;46.748;8.102;2023-02-21T03:47:52;0.93;;;0.80;;
15573;SDS011;7888;46.748;8.102;2023-02-21T03:50:18;2.07;;;1.07;;
15573;SDS011;7888;46.748;8.102;2023-02-21T03:52:44;1.30;;;0.70;;
15573;SDS011;7888;46.748;8.102;2023-02-21T03:55:10;2.87;;;1.17;;
15573;SDS011;7888;46.748;8.102;2023-02-21T03:57:36;1.47;;;0.90;;
15573;SDS011;7888;46.748;8.102;2023-02-21T04:00:02;1.30;;;0.70;;
15573;SDS011;7888;46.748;8.102;2023-02-21T04:02:28;0.83;;;0.67;;
15573;SDS011;7888;46.748;8.102;2023-02-21T04:04:54;2.73;;;0.83;;
15573;SDS011;7888;46.748;8.102;2023-02-21T04:07:20;1.40;;;0.87;;
15573;SDS011;7888;46.748;8.102;2023-02-21T04:09:46;1.67;;;0.70;;
15573;SDS011;7888;46.748;8.102;2023-02-21T04:12:13;1.87;;;0.43;;
15573;SDS011;7888;46.748;8.102;2023-02-21T04:14:40;0.80;;;0.50;;
15573;SDS011;7888;46.748;8.102;2023-02-21T04:17:06;1.40;;;0.90;;
15573;SDS011;7888;46.748;8.102;2023-02-21T04:19:32;0.83;;;0.63;;
15573;SDS011;7888;46.748;8.102;2023-02-21T04:21:58;1.27;;;0.70;;
15573;SDS011;7888;46.748;8.102;2023-02-21T04:24:24;1.67;;;0.50;;
15573;SDS011;7888;46.748;8.102;2023-02-21T04:26:50;0.90;;;0.60;;
15573;SDS011;7888;46.748;8.102;2023-02-21T04:29:16;2.90;;;0.60;;
15573;SDS011;7888;46.748;8.102;2023-02-21T04:31:42;1.33;;;0.60;;
15573;SDS011;7888;46.748;8.102;2023-02-21T04:34:08;0.67;;;0.57;;
15573;SDS011;7888;46.748;8.102;2023-02-21T04:36:34;0.50;;;0.40;;
15573;SDS011;7888;46.748;8.102;2023-02-21T04:39:02;1.27;;;0.50;;
15573;SDS011;7888;46.748;8.102;2023-02-21T04:41:29;0.80;;;0.60;;
15573;SDS011;7888;46.748;8.102;2023-02-21T04:43:55;1.20;;;0.80;;
15573;SDS011;7888;46.748;8.102;2023-02-21T04:46:20;3.13;;;2.50;;
15573;SDS011;7888;46.748;8.102;2023-02-21T04:48:47;1.87;;;1.30;;
15573;SDS011;7888;46.748;8.102;2023-02-21T04:51:16;1.43;;;0.80;;
15573;SDS011;7888;46.748;8.102;2023-02-21T04:53:45;0.53;;;0.53;;
15573;SDS011;7888;46.748;8.102;2023-02-21T04:56:13;1.43;;;0.67;;
15573;SDS011;7888;46.748;8.102;2023-02-21T04:58:42;2.30;;;0.73;;
15573;SDS011;7888;46.748;8.102;2023-02-21T05:01:09;1.70;;;0.73;;
15573;SDS011;7888;46.748;8.102;2023-02-21T05:03:36;1.20;;;0.87;;
15573;SDS011;7888;46.748;8.102;2023-02-21T05:06:02;1.17;;;0.97;;
15573;SDS011;7888;46.748;8.102;2023-02-21T05:08:28;1.20;;;0.83;;
15573;SDS011;7888;46.748;8.102;2023-02-21T05:10:54;3.23;;;1.27;;
15573;SDS011;7888;46.748;8.102;2023-02-21T05:13:20;1.53;;;1.00;;
15573;SDS011;7888;46.748;8.102;2023-02-21T05:15:46;1.97;;;1.30;;
15573;SDS011;7888;46.748;8.102;2023-02-21T05:18:13;2.37;;;1.00;;
15573;SDS011;7888;46.748;8.102;2023-02-21T05:20:46;1.73;;;1.20;;
15573;SDS011;7888;46.748;8.102;2023-02-21T05:23:14;1.60;;;1.30;;
15573;SDS011;7888;46.748;8.102;2023-02-21T05:25:41;1.60;;;0.90;;
15573;SDS011;7888;46.748;8.102;2023-02-21T05:28:07;2.17;;;0.60;;
15573;SDS011;7888;46.748;8.102;2023-02-21T05:30:33;0.60;;;0.60;;
15573;SDS011;7888;46.748;8.102;2023-02-21T05:32:59;0.60;;;0.50;;
15573;SDS011;7888;46.748;8.102;2023-02-21T05:35:25;0.50;;;0.50;;
15573;SDS011;7888;46.748;8.102;2023-02-21T05:37:51;1.30;;;0.30;;
15573;SDS011;7888;46.748;8.102;2023-02-21T05:40:17;0.40;;;0.33;;
15573;SDS011;7888;46.748;8.102;2023-02-21T05:42:43;0.60;;;0.40;;
15573;SDS011;7888;46.748;8.102;2023-02-21T05:45:09;0.97;;;0.57;;
15573;SDS011;7888;46.748;8.102;2023-02-21T05:47:35;1.67;;;1.47;;
15573;SDS011;7888;46.748;8.102;2023-02-21T05:50:02;5.53;;;4.53;;
15573;SDS011;7888;46.748;8.102;2023-02-21T05:52:29;8.20;;;6.10;;
15573;SDS011;7888;46.748;8.102;2023-02-21T05:54:54;7.50;;;6.27;;
15573;SDS011;7888;46.748;8.102;2023-02-21T05:57:20;7.57;;;5.90;;
15573;SDS011;7888;46.748;8.102;2023-02-21T05:59:46;10.17;;;7.70;;
15573;SDS011;7888;46.748;8.102;2023-02-21T06:02:13;13.97;;;10.10;;
15573;SDS011;7888;46.748;8.102;2023-02-21T06:04:39;14.73;;;9.70;;
15573;SDS011;7888;46.748;8.102;2023-02-21T06:07:05;11.90;;;9.10;;
15573;SDS011;7888;46.748;8.102;2023-02-21T06:09:31;11.37;;;7.80;;
15573;SDS011;7888;46.748;8.102;2023-02-21T06:11:57;8.10;;;5.50;;
15573;SDS011;7888;46.748;8.102;2023-02-21T06:14:24;5.93;;;4.27;;
15573;SDS011;7888;46.748;8.102;2023-02-21T06:16:50;4.50;;;3.07;;
15573;SDS011;7888;46.748;8.102;2023-02-21T06:19:16;3.10;;;2.10;;
15573;SDS011;7888;46.748;8.102;2023-02-21T06:21:43;2.07;;;1.37;;
15573;SDS011;7888;46.748;8.102;2023-02-21T06:24:10;1.83;;;1.13;;
15573;SDS011;7888;46.748;8.102;2023-02-21T07:18:28;5.20;;;3.30;;
15573;SDS011;7888;46.748;8.102;2023-02-21T07:20:54;10.80;;;6.63;;
15573;SDS011;7888;46.748;8.102;2023-02-21T07:23:21;7.23;;;6.50;;
15573;SDS011;7888;46.748;8.102;2023-02-21T07:25:47;9.77;;;6.77;;
15573;SDS011;7888;46.748;8.102;2023-02-21T07:28:13;7.27;;;5.83;;
15573;SDS011;7888;46.748;8.102;2023-02-21T07:30:39;7.87;;;5.23;;
15573;SDS011;7888;46.748;8.102;2023-02-21T07:33:06;6.23;;;5.10;;
15573;SDS011;7888;46.748;8.102;2023-02-21T07:35:32;5.67;;;4.13;;
15573;SDS011;7888;46.748;8.102;2023-02-21T07:37:57;6.27;;;2.83;;
15573;SDS011;7888;46.748;8.102;2023-02-21T07:40:24;3.40;;;2.90;;
15573;SDS011;7888;46.748;8.102;2023-02-21T07:42:50;5.03;;;2.70;;
15573;SDS011;7888;46.748;8.102;2023-02-21T07:45:16;2.53;;;1.83;;
15573;SDS011;7888;46.748;8.102;2023-02-21T07:47:43;1.87;;;1.60;;
15573;SDS011;7888;46.748;8.102;2023-02-21T07:50:09;3.37;;;1.90;;
15573;SDS011;7888;46.748;8.102;2023-02-21T07:52:36;2.20;;;1.47;;
15573;SDS011;7888;46.748;8.102;2023-02-21T07:55:03;1.73;;;1.53;;
15573;SDS011;7888;46.748;8.102;2023-02-21T07:57:29;3.13;;;1.40;;
15573;SDS011;7888;46.748;8.102;2023-02-21T07:59:55;3.33;;;1.40;;
15573;SDS011;7888;46.748;8.102;2023-02-21T08:02:21;2.13;;;1.40;;
15573;SDS011;7888;46.748;8.102;2023-02-21T08:04:50;2.97;;;1.30;;
15573;SDS011;7888;46.748;8.102;2023-02-21T08:07:17;3.20;;;2.10;;
15573;SDS011;7888;46.748;8.102;2023-02-21T08:09:43;2.40;;;1.67;;
15573;SDS011;7888;46.748;8.102;2023-02-21T08:12:10;4.00;;;1.97;;
15573;SDS011;7888;46.748;8.102;2023-02-21T08:14:36;3.13;;;1.50;;
15573;SDS011;7888;46.748;8.102;2023-02-21T08:17:02;2.43;;;1.43;;
15573;SDS011;7888;46.748;8.102;2023-02-21T08:19:28;1.30;;;1.10;;
15573;SDS011;7888;46.748;8.102;2023-02-21T08:21:54;2.73;;;1.10;;
15573;SDS011;7888;46.748;8.102;2023-02-21T08:24:20;5.27;;;1.20;;
15573;SDS011;7888;46.748;8.102;2023-02-21T08:26:45;1.60;;;1.03;;
15573;SDS011;7888;46.748;8.102;2023-02-21T08:29:12;2.13;;;1.20;;
15573;SDS011;7888;46.748;8.102;2023-02-21T08:31:39;1.53;;;1.00;;
15573;SDS011;7888;46.748;8.102;2023-02-21T08:34:08;2.67;;;1.47;;
15573;SDS011;7888;46.748;8.102;2023-02-21T08:36:41;1.83;;;1.67;;
15573;SDS011;7888;46.748;8.102;2023-02-21T08:39:08;4.80;;;1.70;;
15573;SDS011;7888;46.748;8.102;2023-02-21T08:44:09;1.20;;;1.10;;
15573;SDS011;7888;46.748;8.102;2023-02-21T08:46:40;3.63;;;1.20;;
15573;SDS011;7888;46.748;8.102;2023-02-21T08:49:06;3.67;;;1.17;;
15573;SDS011;7888;46.748;8.102;2023-02-21T08:51:34;3.70;;;1.20;;
15573;SDS011;7888;46.748;8.102;2023-02-21T08:54:01;2.73;;;1.40;;
15573;SDS011;7888;46.748;8.102;2023-02-21T08:56:28;4.57;;;1.50;;
15573;SDS011;7888;46.748;8.102;2023-02-21T08:58:57;2.43;;;1.03;;
15573;SDS011;7888;46.748;8.102;2023-02-21T09:01:28;2.47;;;1.27;;
15573;SDS011;7888;46.748;8.102;2023-02-21T09:03:58;1.30;;;1.10;;
15573;SDS011;7888;46.748;8.102;2023-02-21T09:06:24;1.70;;;0.80;;
15573;SDS011;7888;46.748;8.102;2023-02-21T09:08:49;1.73;;;0.80;;
15573;SDS011;7888;46.748;8.102;2023-02-21T09:11:15;0.70;;;0.70;;
15573;SDS011;7888;46.748;8.102;2023-02-21T09:13:41;1.83;;;0.97;;
15573;SDS011;7888;46.748;8.102;2023-02-21T09:16:07;2.47;;;1.10;;
15573;SDS011;7888;46.748;8.102;2023-02-21T09:18:32;2.73;;;0.90;;
15573;SDS011;7888;46.748;8.102;2023-02-21T09:20:58;2.43;;;1.10;;
15573;SDS011;7888;46.748;8.102;2023-02-21T09:23:26;1.43;;;1.00;;
15573;SDS011;7888;46.748;8.102;2023-02-21T09:25:55;6.63;;;1.30;;
15573;SDS011;7888;46.748;8.102;2023-02-21T09:28:21;1.33;;;1.03;;
15573;SDS011;7888;46.748;8.102;2023-02-21T09:30:48;3.67;;;1.20;;
15573;SDS011;7888;46.748;8.102;2023-02-21T09:33:15;1.30;;;1.00;;
15573;SDS011;7888;46.748;8.102;2023-02-21T09:35:41;2.10;;;0.93;;
15573;SDS011;7888;46.748;8.102;2023-02-21T09:38:07;2.33;;;1.20;;
15573;SDS011;7888;46.748;8.102;2023-02-21T09:40:47;2.03;;;0.93;;
15573;SDS011;7888;46.748;8.102;2023-02-21T09:43:42;2.80;;;0.80;;
15573;SDS011;7888;46.748;8.102;2023-02-21T09:46:17;2.20;;;0.87;;
15573;SDS011;7888;46.748;8.102;2023-02-21T09:49:13;2.83;;;1.07;;
15573;SDS011;7888;46.748;8.102;2023-02-21T09:52:00;1.60;;;0.80;;
15573;SDS011;7888;46.748;8.102;2023-02-21T09:54:38;3.00;;;1.10;;
15573;SDS011;7888;46.748;8.102;2023-02-21T09:57:13;2.03;;;0.80;;
15573;SDS011;7888;46.748;8.102;2023-02-21T09:59:42;8.27;;;1.50;;
15573;SDS011;7888;46.748;8.102;2023-02-21T10:13:18;2.60;;;0.80;;
15573;SDS011;7888;46.748;8.102;2023-02-21T10:21:46;1.30;;;0.87;;
15573;SDS011;7888;46.748;8.102;2023-02-21T10:24:15;1.60;;;0.80;;
15573;SDS011;7888;46.748;8.102;2023-02-21T10:26:48;2.00;;;0.70;;
15573;SDS011;7888;46.748;8.102;2023-02-21T10:32:34;0.90;;;0.60;;
15573;SDS011;7888;46.748;8.102;2023-02-21T10:35:01;0.90;;;0.67;;
15573;SDS011;7888;46.748;8.102;2023-02-21T10:37:45;0.97;;;0.87;;
15573;SDS011;7888;46.748;8.102;2023-02-21T10:43:45;3.83;;;1.40;;
15573;SDS011;7888;46.748;8.102;2023-02-21T10:46:16;5.00;;;0.97;;
15573;SDS011;7888;46.748;8.102;2023-02-21T10:48:55;2.43;;;0.80;;
15573;SDS011;7888;46.748;8.102;2023-02-21T10:52:08;3.33;;;0.90;;
15573;SDS011;7888;46.748;8.102;2023-02-21T10:54:38;1.50;;;0.70;;
15573;SDS011;7888;46.748;8.102;2023-02-21T10:57:09;1.13;;;0.90;;
15573;SDS011;7888;46.748;8.102;2023-02-21T10:59:41;3.73;;;0.90;;
15573;SDS011;7888;46.748;8.102;2023-02-21T11:08:04;1.13;;;0.80;;
15573;SDS011;7888;46.748;8.102;2023-02-21T11:10:34;1.40;;;0.70;;
15573;SDS011;7888;46.748;8.102;2023-02-21T11:15:35;2.10;;;0.90;;
15573;SDS011;7888;46.748;8.102;2023-02-21T11:18:03;0.80;;;0.70;;
15573;SDS011;7888;46.748;8.102;2023-02-21T11:20:37;1.52;;;0.70;;
15573;SDS011;7888;46.748;8.102;2023-02-21T11:23:03;0.90;;;0.90;;
15573;SDS011;7888;46.748;8.102;2023-02-21T11:25:43;1.92;;;0.77;;
15573;SDS011;7888;46.748;8.102;2023-02-21T11:30:40;1.17;;;0.70;;
15573;SDS011;7888;46.748;8.102;2023-02-21T11:33:57;0.70;;;0.50;;
15573;SDS011;7888;46.748;8.102;2023-02-21T11:36:28;2.67;;;0.70;;
15573;SDS011;7888;46.748;8.102;2023-02-21T11:41:44;0.50;;;0.50;;
15573;SDS011;7888;46.748;8.102;2023-02-21T11:44:30;0.60;;;0.57;;
15573;SDS011;7888;46.748;8.102;2023-02-21T11:47:13;0.88;;;0.50;;
15573;SDS011;7888;46.748;8.102;2023-02-21T11:50:11;1.23;;;0.70;;
15573;SDS011;7888;46.748;8.102;2023-02-21T11:55:31;5.18;;;0.95;;
15573;SDS011;7888;46.748;8.102;2023-02-21T11:58:16;1.55;;;0.60;;
15573;SDS011;7888;46.748;8.102;2023-02-21T12:00:54;1.50;;;0.63;;
15573;SDS011;7888;46.748;8.102;2023-02-21T12:03:50;0.30;;;0.30;;
15573;SDS011;7888;46.748;8.102;2023-02-21T12:15:25;2.42;;;0.63;;
15573;SDS011;7888;46.748;8.102;2023-02-21T12:39:05;2.00;;;0.98;;
15573;SDS011;7888;46.748;8.102;2023-02-21T12:48:19;1.67;;;0.80;;
15573;SDS011;7888;46.748;8.102;2023-02-21T12:51:08;1.88;;;0.52;;
15573;SDS011;7888;46.748;8.102;2023-02-21T12:53:42;0.50;;;0.45;;
15573;SDS011;7888;46.748;8.102;2023-02-21T12:56:29;0.98;;;0.45;;
15573;SDS011;7888;46.748;8.102;2023-02-21T13:01:48;1.80;;;0.60;;
15573;SDS011;7888;46.748;8.102;2023-02-21T13:04:45;1.95;;;0.63;;
15573;SDS011;7888;46.748;8.102;2023-02-21T13:10:19;1.55;;;0.60;;
15573;SDS011;7888;46.748;8.102;2023-02-21T13:15:40;0.40;;;0.40;;
15573;SDS011;7888;46.748;8.102;2023-02-21T13:20:52;3.50;;;0.55;;
15573;SDS011;7888;46.748;8.102;2023-02-21T13:23:49;1.40;;;0.50;;
15573;SDS011;7888;46.748;8.102;2023-02-21T13:28:58;2.13;;;0.73;;
15573;SDS011;7888;46.748;8.102;2023-02-21T13:31:25;4.03;;;0.93;;
15573;SDS011;7888;46.748;8.102;2023-02-21T13:34:06;2.53;;;0.60;;
15573;SDS011;7888;46.748;8.102;2023-02-21T13:42:08;2.72;;;0.90;;
15573;SDS011;7888;46.748;8.102;2023-02-21T13:44:43;1.55;;;0.55;;
15573;SDS011;7888;46.748;8.102;2023-02-21T13:47:15;1.38;;;0.55;;
15573;SDS011;7888;46.748;8.102;2023-02-21T13:49:56;1.35;;;0.60;;
15573;SDS011;7888;46.748;8.102;2023-02-21T13:52:51;0.75;;;0.50;;
15573;SDS011;7888;46.748;8.102;2023-02-21T13:55:33;1.70;;;0.85;;
15573;SDS011;7888;46.748;8.102;2023-02-21T14:13:33;2.55;;;1.00;;
15573;SDS011;7888;46.748;8.102;2023-02-21T14:18:42;2.13;;;0.77;;
15573;SDS011;7888;46.748;8.102;2023-02-21T14:21:25;0.80;;;0.60;;
15573;SDS011;7888;46.748;8.102;2023-02-21T14:23:59;0.80;;;0.75;;
15573;SDS011;7888;46.748;8.102;2023-02-21T14:26:38;1.23;;;0.93;;
15573;SDS011;7888;46.748;8.102;2023-02-21T14:34:36;1.10;;;0.77;;
15573;SDS011;7888;46.748;8.102;2023-02-21T14:46:09;1.55;;;0.90;;
15573;SDS011;7888;46.748;8.102;2023-02-21T14:55:01;2.78;;;0.90;;
15573;SDS011;7888;46.748;8.102;2023-02-21T15:01:36;6.40;;;1.13;;
15573;SDS011;7888;46.748;8.102;2023-02-21T15:04:54;1.05;;;0.82;;
15573;SDS011;7888;46.748;8.102;2023-02-21T15:10:31;3.35;;;0.75;;
15573;SDS011;7888;46.748;8.102;2023-02-21T15:13:05;1.52;;;0.88;;
15573;SDS011;7888;46.748;8.102;2023-02-21T15:15:37;1.27;;;0.70;;
15573;SDS011;7888;46.748;8.102;2023-02-21T15:18:08;1.38;;;0.85;;
15573;SDS011;7888;46.748;8.102;2023-02-21T15:20:46;2.10;;;0.80;;
15573;SDS011;7888;46.748;8.102;2023-02-21T15:23:35;2.53;;;0.88;;
15573;SDS011;7888;46.748;8.102;2023-02-21T15:26:21;0.73;;;0.68;;
15573;SDS011;7888;46.748;8.102;2023-02-21T15:37:02;1.27;;;0.80;;
15573;SDS011;7888;46.748;8.102;2023-02-21T15:39:54;2.05;;;1.08;;
15573;SDS011;7888;46.748;8.102;2023-02-21T15:42:26;3.67;;;1.23;;
15573;SDS011;7888;46.748;8.102;2023-02-21T15:47:26;2.88;;;0.82;;
15573;SDS011;7888;46.748;8.102;2023-02-21T15:50:11;1.30;;;0.90;;
15573;SDS011;7888;46.748;8.102;2023-02-21T15:52:46;4.35;;;1.10;;
15573;SDS011;7888;46.748;8.102;2023-02-21T15:57:56;1.45;;;0.90;;
15573;SDS011;7888;46.748;8.102;2023-02-21T16:00:33;1.15;;;0.90;;
15573;SDS011;7888;46.748;8.102;2023-02-21T16:11:45;3.30;;;0.98;;
15573;SDS011;7888;46.748;8.102;2023-02-21T16:14:29;2.30;;;0.73;;
15573;SDS011;7888;46.748;8.102;2023-02-21T16:17:07;3.95;;;0.98;;
15573;SDS011;7888;46.748;8.102;2023-02-21T16:19:41;2.63;;;1.20;;
15573;SDS011;7888;46.748;8.102;2023-02-21T16:22:31;1.55;;;1.00;;
15573;SDS011;7888;46.748;8.102;2023-02-21T16:27:34;2.05;;;0.85;;
15573;SDS011;7888;46.748;8.102;2023-02-21T16:30:02;1.13;;;0.60;;
15573;SDS011;7888;46.748;8.102;2023-02-21T16:32:31;2.78;;;0.73;;
15573;SDS011;7888;46.748;8.102;2023-02-21T16:34:59;1.60;;;0.95;;
15573;SDS011;7888;46.748;8.102;2023-02-21T16:37:26;1.17;;;0.82;;
15573;SDS011;7888;46.748;8.102;2023-02-21T16:39:52;0.95;;;0.60;;
15573;SDS011;7888;46.748;8.102;2023-02-21T16:42:18;1.05;;;0.55;;
15573;SDS011;7888;46.748;8.102;2023-02-21T16:44:44;2.15;;;0.60;;
15573;SDS011;7888;46.748;8.102;2023-02-21T16:47:13;0.63;;;0.55;;
15573;SDS011;7888;46.748;8.102;2023-02-21T16:49:41;1.75;;;0.63;;
15573;SDS011;7888;46.748;8.102;2023-02-21T16:52:12;0.90;;;0.70;;
15573;SDS011;7888;46.748;8.102;2023-02-21T16:54:41;0.95;;;0.70;;
15573;SDS011;7888;46.748;8.102;2023-02-21T16:57:08;1.70;;;0.60;;
15573;SDS011;7888;46.748;8.102;2023-02-21T16:59:35;1.45;;;0.80;;
15573;SDS011;7888;46.748;8.102;2023-02-21T17:02:02;1.30;;;0.80;;
15573;SDS011;7888;46.748;8.102;2023-02-21T17:04:29;1.33;;;0.90;;
15573;SDS011;7888;46.748;8.102;2023-02-21T17:06:56;1.00;;;0.90;;
15573;SDS011;7888;46.748;8.102;2023-02-21T17:09:29;1.40;;;1.30;;
15573;SDS011;7888;46.748;8.102;2023-02-21T17:12:03;3.60;;;1.63;;
15573;SDS011;7888;46.748;8.102;2023-02-21T17:14:32;2.77;;;2.57;;
15573;SDS011;7888;46.748;8.102;2023-02-21T17:16:59;3.30;;;3.00;;
15573;SDS011;7888;46.748;8.102;2023-02-21T17:19:25;2.47;;;2.27;;
15573;SDS011;7888;46.748;8.102;2023-02-21T17:21:51;3.13;;;1.87;;
15573;SDS011;7888;46.748;8.102;2023-02-21T17:24:17;2.13;;;1.27;;
15573;SDS011;7888;46.748;8.102;2023-02-21T17:26:43;2.57;;;1.50;;
15573;SDS011;7888;46.748;8.102;2023-02-21T17:29:09;1.80;;;1.40;;
15573;SDS011;7888;46.748;8.102;2023-02-21T17:31:36;2.40;;;1.40;;
15573;SDS011;7888;46.748;8.102;2023-02-21T17:34:02;2.50;;;1.57;;
15573;SDS011;7888;46.748;8.102;2023-02-21T17:36:28;2.33;;;1.60;;
15573;SDS011;7888;46.748;8.102;2023-02-21T17:38:55;1.80;;;1.70;;
15573;SDS011;7888;46.748;8.102;2023-02-21T17:41:21;2.17;;;1.30;;
15573;SDS011;7888;46.748;8.102;2023-02-21T17:43:48;1.93;;;1.10;;
15573;SDS011;7888;46.748;8.102;2023-02-21T17:46:15;2.87;;;0.90;;
15573;SDS011;7888;46.748;8.102;2023-02-21T17:48:43;2.37;;;1.17;;
15573;SDS011;7888;46.748;8.102;2023-02-21T17:51:18;1.60;;;1.10;;
15573;SDS011;7888;46.748;8.102;2023-02-21T17:53:48;1.90;;;1.10;;
15573;SDS011;7888;46.748;8.102;2023-02-21T17:56:15;3.50;;;2.10;;
15573;SDS011;7888;46.748;8.102;2023-02-21T17:58:48;2.40;;;2.20;;
15573;SDS011;7888;46.748;8.102;2023-02-21T18:01:16;8.17;;;4.63;;
15573;SDS011;7888;46.748;8.102;2023-02-21T18:03:44;7.00;;;5.60;;
15573;SDS011;7888;46.748;8.102;2023-02-21T18:06:12;7.70;;;6.03;;
15573;SDS011;7888;46.748;8.102;2023-02-21T18:08:38;9.40;;;5.43;;
15573;SDS011;7888;46.748;8.102;2023-02-21T18:11:08;7.40;;;5.53;;
15573;SDS011;7888;46.748;8.102;2023-02-21T18:13:35;9.07;;;5.77;;
15573;SDS011;7888;46.748;8.102;2023-02-21T18:16:01;8.53;;;5.60;;
15573;SDS011;7888;46.748;8.102;2023-02-21T18:18:30;7.73;;;5.57;;
15573;SDS011;7888;46.748;8.102;2023-02-21T18:20:57;7.70;;;5.70;;
15573;SDS011;7888;46.748;8.102;2023-02-21T18:23:27;6.70;;;5.40;;
15573;SDS011;7888;46.748;8.102;2023-02-21T18:25:54;6.07;;;4.90;;
15573;SDS011;7888;46.748;8.102;2023-02-21T18:28:21;6.80;;;5.53;;
15573;SDS011;7888;46.748;8.102;2023-02-21T18:30:47;6.90;;;5.20;;
15573;SDS011;7888;46.748;8.102;2023-02-21T18:33:15;7.30;;;5.90;;
15573;SDS011;7888;46.748;8.102;2023-02-21T18:35:47;6.43;;;4.97;;
15573;SDS011;7888;46.748;8.102;2023-02-21T18:38:13;4.90;;;4.10;;
15573;SDS011;7888;46.748;8.102;2023-02-21T18:40:43;6.03;;;4.17;;
15573;SDS011;7888;46.748;8.102;2023-02-21T18:43:19;5.53;;;3.20;;
15573;SDS011;7888;46.748;8.102;2023-02-21T18:45:53;4.17;;;3.10;;
15573;SDS011;7888;46.748;8.102;2023-02-21T18:48:22;4.60;;;3.00;;
15573;SDS011;7888;46.748;8.102;2023-02-21T18:50:49;7.37;;;4.80;;
15573;SDS011;7888;46.748;8.102;2023-02-21T18:53:16;14.17;;;9.40;;
15573;SDS011;7888;46.748;8.102;2023-02-21T18:55:42;19.63;;;12.80;;
15573;SDS011;7888;46.748;8.102;2023-02-21T18:58:08;13.40;;;9.07;;
15573;SDS011;7888;46.748;8.102;2023-02-21T19:00:35;9.10;;;6.67;;
15573;SDS011;7888;46.748;8.102;2023-02-21T19:03:04;12.60;;;7.40;;
15573;SDS011;7888;46.748;8.102;2023-02-21T19:05:32;23.47;;;12.57;;
15573;SDS011;7888;46.748;8.102;2023-02-21T19:07:58;31.10;;;16.20;;
15573;SDS011;7888;46.748;8.102;2023-02-21T19:10:26;29.07;;;14.20;;
15573;SDS011;7888;46.748;8.102;2023-02-21T19:12:53;17.67;;;10.27;;
15573;SDS011;7888;46.748;8.102;2023-02-21T19:15:19;10.23;;;7.30;;
15573;SDS011;7888;46.748;8.102;2023-02-21T19:17:46;11.10;;;6.53;;
15573;SDS011;7888;46.748;8.102;2023-02-21T19:20:14;8.10;;;6.47;;
15573;SDS011;7888;46.748;8.102;2023-02-21T19:22:43;5.90;;;4.67;;
15573;SDS011;7888;46.748;8.102;2023-02-21T19:25:10;5.67;;;3.37;;
15573;SDS011;7888;46.748;8.102;2023-02-21T19:27:36;2.67;;;2.07;;
15573;SDS011;7888;46.748;8.102;2023-02-21T19:30:02;3.00;;;2.07;;
15573;SDS011;7888;46.748;8.102;2023-02-21T19:32:29;3.03;;;2.73;;
15573;SDS011;7888;46.748;8.102;2023-02-21T19:35:00;3.00;;;2.63;;
15573;SDS011;7888;46.748;8.102;2023-02-21T19:37:25;1.90;;;1.63;;
15573;SDS011;7888;46.748;8.102;2023-02-21T19:39:51;1.83;;;1.10;;
15573;SDS011;7888;46.748;8.102;2023-02-21T19:42:17;1.00;;;0.87;;